world map with QME marked

QME - Location

This information may not be accurate or current and is not valid for navigation or flight planning. No warranty of fitness for any purpose is made or implied.

flag of Sicilyflag of Italy

Donate via PayPal

Additional information is available on the NEW Great Circle Mapper

Location
City:  Messina, Sicily, Italy
ICAO / IATA:LICF / QME

Details
Latitude:38°12'N (38.200)
Longitude:15°33'E (15.550)

Time
Timezone:UTC+1 (DST+4)
Local Time:

Weather
METAR:LICF  041355Z 30006G18KT 5000 -TSRA FEW015CB SCT020 12/09 Q1008 RMK OVC OVC100 QUK 2 QUL 0 VIS MAR 5 KM MON CIME INC NC VIS MIN 5000

Related Locations
Nearby:
Farthest:CHT: 11702 mi / 18833 km
Waitangi [Tuuta], CIT, NZ

Find:

   beyond  
but within

Other Information
Maps:
Sources:

  


 


Great Circle Mapper   Great Circle Mapper
Great Circle Mapper FAQ   Great Circle Mapper FAQ
  Karl's Home Page
KLSē   KLSē Home
   GC on Facebook
Airlines of the World   Airlines of the World
Donate via PayPal


Copyright © 2004-2020, Karl L. Swartz. All rights reserved.
All trademarks mentioned herein belong to their respective owners.

Please see credits for attribution and copyright information.

Karl Swartz <karl@kls2.com>
  Powered by FreeBSD
Valid HTML 4.01!
Labeled with ICRA
hCard Microformat
Geo Microformat